Time;durP1;ratioP1;P1;durP2;ratioP2;P2;SDS_P1;SDS_P2;PMS_P1;PMS_P2;Temp;Humidity;BMP_temperature;BMP_pressure;BME280_temperature;BME280_humidity;BME280_pressure;Samples;Min_cycle;Max_cycle;Signal;HPM_P1;HPM_P2
2022/07/16 00:03:28;;;;;;;0.63;0.50;;;;;;;14.74;69.00;101214.06;6018643;28;20030;-65
2022/07/16 00:06:24;;;;;;;1.03;0.60;;;;;;;14.72;69.56;101223.25;6023912;28;20030;-66
2022/07/16 00:09:20;;;;;;;4.03;0.63;;;;;;;14.60;69.70;101201.31;6024918;28;20825;-66
2022/07/16 00:12:16;;;;;;;0.60;0.55;;;;;;;14.71;69.70;101214.38;6019976;28;20042;-64
2022/07/16 00:15:11;;;;;;;0.67;0.40;;;;;;;14.86;69.60;101217.28;6017262;28;20096;-67
2022/07/16 00:21:22;;;;;;;1.58;0.38;;;;;;;14.57;69.83;101206.13;6020183;28;20054;-66
2022/07/16 00:24:17;;;;;;;0.50;0.43;;;;;;;14.52;69.82;101206.63;6017102;28;20394;-66
2022/07/16 00:27:12;;;;;;;1.63;0.63;;;;;;;14.41;70.05;101198.03;6020502;28;20034;-66
2022/07/16 00:30:08;;;;;;;0.75;0.40;;;;;;;14.47;69.48;101200.09;6024514;28;20073;-66
2022/07/16 00:33:03;;;;;;;3.05;0.60;;;;;;;14.45;69.78;101191.41;6021906;28;20390;-65
2022/07/16 00:35:59;;;;;;;1.17;0.60;;;;;;;14.54;69.27;101190.47;6015482;28;20042;-66
2022/07/16 00:38:54;;;;;;;3.80;0.63;;;;;;;14.59;69.06;101188.16;6009918;28;20050;-66
2022/07/16 00:41:49;;;;;;;1.93;0.50;;;;;;;14.61;68.56;101192.31;6018294;28;20285;-66
2022/07/16 00:44:44;;;;;;;4.57;0.60;;;;;;;14.70;68.41;101195.88;6012996;28;20426;-67
2022/07/16 00:47:40;;;;;;;7.30;0.60;;;;;;;14.77;68.94;101181.72;6024186;28;20633;-66
2022/07/16 00:50:36;;;;;;;2.20;0.60;;;;;;;14.68;68.75;101172.00;6027225;28;20042;-66
2022/07/16 00:53:32;;;;;;;3.53;0.70;;;;;;;14.75;68.47;101182.88;6023480;28;20476;-66
2022/07/16 00:56:28;;;;;;;4.18;0.70;;;;;;;14.67;68.35;101180.19;6027733;28;20034;-66
2022/07/16 00:59:24;;;;;;;0.67;0.33;;;;;;;14.69;68.53;101180.84;6023372;28;20517;-67
2022/07/16 01:02:19;;;;;;;0.70;0.60;;;;;;;14.84;68.38;101179.22;6027387;28;20277;-66
2022/07/16 01:05:14;;;;;;;1.20;0.60;;;;;;;14.77;68.06;101178.19;6023278;28;20034;-67
2022/07/16 01:08:10;;;;;;;0.73;0.50;;;;;;;14.82;68.37;101186.56;6026581;28;20049;-66
2022/07/16 01:11:09;;;;;;;1.63;0.60;;;;;;;14.78;68.49;101177.22;6028003;28;20096;-65
2022/07/16 01:14:05;;;;;;;1.52;0.50;;;;;;;14.71;68.57;101177.00;6028064;28;20033;-67
2022/07/16 01:17:00;;;;;;;3.22;0.63;;;;;;;14.68;68.71;101185.34;6026917;28;20038;-66
2022/07/16 01:19:56;;;;;;;1.08;0.57;;;;;;;14.72;68.88;101199.22;6028967;28;21581;-64
2022/07/16 01:22:54;;;;;;;1.48;0.60;;;;;;;14.74;69.16;101184.69;6021664;28;20040;-65
2022/07/16 01:25:50;;;;;;;2.13;0.70;;;;;;;14.90;68.27;101194.59;6023489;28;20509;-64
2022/07/16 01:28:45;;;;;;;2.85;0.60;;;;;;;14.92;68.07;101194.44;6029068;28;20035;-67
2022/07/16 01:31:41;;;;;;;0.80;0.50;;;;;;;14.88;67.33;101188.59;6025163;28;20089;-66
2022/07/16 01:34:37;;;;;;;1.13;0.57;;;;;;;14.86;67.75;101185.25;6024275;28;20296;-67
2022/07/16 01:37:32;;;;;;;1.10;0.52;;;;;;;14.90;68.03;101192.75;6016091;28;20081;-65
2022/07/16 01:40:28;;;;;;;3.13;0.70;;;;;;;14.85;67.75;101173.72;6028057;28;20069;-65
2022/07/16 01:43:26;;;;;;;1.10;0.77;;;;;;;14.89;68.04;101184.94;6016778;28;20046;-67
2022/07/16 01:46:21;;;;;;;1.67;0.70;;;;;;;14.82;68.80;101174.06;6027028;28;20487;-66
2022/07/16 01:49:16;;;;;;;4.70;0.73;;;;;;;14.88;68.33;101184.09;6028336;28;20034;-67
2022/07/16 01:52:16;;;;;;;3.63;0.90;;;;;;;14.85;69.06;101178.22;6019735;28;20029;-65
2022/07/16 01:55:11;;;;;;;2.25;0.75;;;;;;;14.90;68.61;101182.09;6015723;28;20078;-67
2022/07/16 01:58:07;;;;;;;1.93;0.60;;;;;;;15.00;68.40;101173.91;6015679;28;20394;-66
2022/07/16 02:01:03;;;;;;;2.90;1.00;;;;;;;14.98;68.48;101173.25;6024240;28;20433;-67
2022/07/16 02:03:58;;;;;;;4.20;0.83;;;;;;;15.00;68.66;101165.91;6025497;28;20035;-67
2022/07/16 02:06:54;;;;;;;1.58;0.70;;;;;;;15.09;68.92;101172.94;6027517;28;20812;-67
2022/07/16 02:09:49;;;;;;;2.00;0.80;;;;;;;15.08;68.15;101165.09;6019472;28;20038;-64
2022/07/16 02:12:45;;;;;;;1.27;0.80;;;;;;;15.08;68.73;101154.44;6023691;28;20474;-67
2022/07/16 02:15:40;;;;;;;2.80;1.05;;;;;;;15.04;68.76;101150.41;6024321;28;20029;-65
2022/07/16 02:18:36;;;;;;;1.13;0.90;;;;;;;15.08;69.29;101163.28;6023095;28;20043;-67
2022/07/16 02:21:32;;;;;;;3.67;1.10;;;;;;;15.10;68.84;101149.75;6026904;28;20326;-67
2022/07/16 02:24:28;;;;;;;3.13;0.90;;;;;;;15.11;68.97;101157.59;6024883;28;20040;-65
2022/07/16 02:27:23;;;;;;;3.17;1.08;;;;;;;15.12;69.48;101153.06;6018596;28;20152;-66
2022/07/16 02:30:18;;;;;;;5.10;0.80;;;;;;;15.16;68.94;101165.13;6025171;28;20093;-67
2022/07/16 02:33:18;;;;;;;2.93;1.07;;;;;;;15.18;69.10;101163.97;6023084;28;20150;-67
2022/07/16 02:36:13;;;;;;;2.28;0.75;;;;;;;15.09;69.29;101156.06;6021322;28;20087;-64
2022/07/16 02:39:09;;;;;;;2.47;0.90;;;;;;;15.13;69.44;101158.28;6016576;28;20046;-65
2022/07/16 02:42:04;;;;;;;3.07;0.83;;;;;;;15.02;69.80;101155.06;6021493;28;20277;-67
2022/07/16 02:44:59;;;;;;;2.40;0.90;;;;;;;14.94;70.07;101166.59;6027073;28;20026;-64
2022/07/16 02:47:55;;;;;;;1.27;0.77;;;;;;;14.76;70.61;101145.31;6012252;28;20026;-66
2022/07/16 02:50:50;;;;;;;2.67;0.73;;;;;;;14.81;71.34;101152.88;6015879;28;20513;-66
2022/07/16 02:53:45;;;;;;;2.00;1.10;;;;;;;14.78;71.39;101147.84;6019176;28;20036;-64
2022/07/16 02:56:40;;;;;;;2.03;0.97;;;;;;;14.74;71.41;101146.47;6017449;28;20038;-67
2022/07/16 02:59:36;;;;;;;3.67;0.80;;;;;;;14.86;71.07;101145.19;6013446;28;20479;-66
2022/07/16 03:02:31;;;;;;;1.60;1.00;;;;;;;14.90;70.67;101143.84;6022198;28;20040;-66
2022/07/16 03:05:28;;;;;;;3.60;1.03;;;;;;;14.82;71.40;101135.81;6018635;28;20040;-65
2022/07/16 03:08:23;;;;;;;3.22;1.00;;;;;;;14.93;71.04;101143.53;6016962;28;20080;-66
2022/07/16 03:11:18;;;;;;;1.40;1.00;;;;;;;14.94;70.94;101139.88;6024863;28;20034;-67
2022/07/16 03:14:14;;;;;;;1.90;0.90;;;;;;;14.93;70.76;101135.53;6016339;28;20029;-65
2022/07/16 03:17:09;;;;;;;3.77;1.33;;;;;;;15.05;70.95;101144.06;6024124;28;20509;-66
2022/07/16 03:20:05;;;;;;;1.87;1.23;;;;;;;15.03;70.58;101138.88;6025210;28;20038;-64
2022/07/16 03:23:00;;;;;;;2.83;0.90;;;;;;;15.02;70.74;101136.38;6022534;28;20045;-67
2022/07/16 03:25:56;;;;;;;2.40;1.00;;;;;;;14.95;71.02;101130.84;6016388;28;20034;-66
2022/07/16 03:28:51;;;;;;;3.47;1.20;;;;;;;15.04;70.49;101137.03;6018588;28;20339;-64
2022/07/16 03:31:46;;;;;;;2.97;1.20;;;;;;;14.99;70.89;101126.00;6021808;28;20138;-65
2022/07/16 03:34:42;;;;;;;2.03;1.10;;;;;;;15.08;70.47;101122.38;6020553;28;20084;-66
2022/07/16 03:38:57;;;;;;;2.65;1.15;;;;;;;15.04;70.24;101123.69;6021128;28;21559;-64
2022/07/16 03:40:54;;;;;;;4.40;1.10;;;;;;;15.12;69.82;101127.22;6025326;28;20395;-66
2022/07/16 03:43:49;;;;;;;2.50;1.20;;;;;;;15.13;70.15;101134.22;6006187;28;20039;-67
2022/07/16 03:46:44;;;;;;;3.75;1.23;;;;;;;15.12;70.43;101127.22;6016399;28;20118;-64
2022/07/16 03:49:40;;;;;;;3.27;1.33;;;;;;;15.19;69.90;101136.22;6022221;28;20397;-65
2022/07/16 03:52:35;;;;;;;3.80;1.30;;;;;;;15.15;70.50;101132.22;6022346;28;20042;-66
2022/07/16 03:55:30;;;;;;;3.27;1.20;;;;;;;15.15;70.44;101134.06;6025846;28;20661;-66
2022/07/16 03:58:28;;;;;;;2.67;1.10;;;;;;;15.22;69.91;101127.06;6013453;28;20376;-65
2022/07/16 04:01:24;;;;;;;2.55;1.20;;;;;;;15.22;69.97;101119.84;6025248;28;20030;-66
2022/07/16 04:04:19;;;;;;;3.70;1.10;;;;;;;15.27;69.48;101122.88;6018656;28;20105;-67
2022/07/16 04:07:15;;;;;;;1.97;1.20;;;;;;;15.29;73.64;101144.94;6016681;28;20077;-65
2022/07/16 04:10:10;;;;;;;3.53;1.53;;;;;;;14.84;76.53;101123.13;6016975;28;20102;-64
2022/07/16 04:13:05;;;;;;;3.60;1.53;;;;;;;14.59;78.72;101135.59;6028675;28;20273;-63
2022/07/16 04:16:00;;;;;;;3.40;1.27;;;;;;;14.38;78.98;101137.03;6026433;28;20162;-62
2022/07/16 04:18:56;;;;;;;2.93;1.50;;;;;;;14.31;78.58;101126.09;6017210;28;20367;-64
2022/07/16 04:21:51;;;;;;;4.33;2.47;;;;;;;14.28;79.89;101135.28;6027113;28;20046;-63
2022/07/16 04:24:46;;;;;;;2.13;1.40;;;;;;;14.35;79.71;101145.34;6027838;28;20033;-63
2022/07/16 04:27:43;;;;;;;4.67;1.43;;;;;;;14.38;79.55;101156.50;6023734;28;20048;-64
2022/07/16 04:30:38;;;;;;;2.58;1.40;;;;;;;14.42;80.01;101143.69;6020893;28;20038;-64
2022/07/16 04:33:33;;;;;;;3.57;1.73;;;;;;;14.58;79.06;101157.09;6026935;28;20120;-62
2022/07/16 04:36:28;;;;;;;2.47;1.50;;;;;;;14.43;80.73;101142.72;6028293;28;20277;-62
2022/07/16 04:39:24;;;;;;;4.23;1.50;;;;;;;14.30;81.78;101159.94;6030213;28;20669;-63
2022/07/16 04:42:19;;;;;;;3.03;1.80;;;;;;;14.15;83.19;101158.88;6020453;28;20114;-63
2022/07/16 04:45:16;;;;;;;6.93;2.10;;;;;;;14.00;84.29;101151.59;6025832;28;20034;-63
2022/07/16 04:48:11;;;;;;;6.82;2.33;;;;;;;13.97;84.93;101160.75;6025754;28;20625;-63
2022/07/16 04:51:06;;;;;;;4.60;2.33;;;;;;;13.88;85.90;101169.72;6028875;28;20030;-62
2022/07/16 04:54:02;;;;;;;6.23;2.10;;;;;;;13.83;86.96;101171.16;6024727;28;20034;-62
2022/07/16 04:56:57;;;;;;;3.20;1.87;;;;;;;13.82;87.49;101173.00;6029788;28;20030;-62
2022/07/16 04:59:53;;;;;;;3.40;1.92;;;;;;;13.79;88.59;101178.63;6027674;28;20501;-63
2022/07/16 05:02:57;;;;;;;4.43;1.98;;;;;;;13.72;89.50;101173.06;6023198;28;20041;-62
2022/07/16 05:05:53;;;;;;;4.50;2.00;;;;;;;13.72;89.74;101188.25;6026576;28;20084;-63
2022/07/16 05:08:48;;;;;;;5.63;2.70;;;;;;;13.59;91.69;101179.78;6026198;28;20050;-64
2022/07/16 05:11:43;;;;;;;4.87;2.27;;;;;;;13.50;93.21;101184.25;6023962;28;20401;-63
2022/07/16 05:14:38;;;;;;;5.63;2.47;;;;;;;13.44;94.74;101189.31;6012370;28;20033;-63
2022/07/16 05:17:34;;;;;;;5.07;2.67;;;;;;;13.41;95.74;101194.97;6025393;28;20034;-65
2022/07/16 05:20:30;;;;;;;6.25;2.58;;;;;;;13.35;97.12;101190.22;6025195;28;20437;-63
2022/07/16 05:23:25;;;;;;;4.68;2.65;;;;;;;13.44;97.84;101203.50;6019364;28;20037;-65
2022/07/16 05:26:21;;;;;;;5.63;2.93;;;;;;;13.44;98.12;101200.81;6027803;28;20065;-64
2022/07/16 05:29:16;;;;;;;5.10;2.93;;;;;;;13.45;98.64;101215.00;6018570;28;20273;-63
2022/07/16 05:32:11;;;;;;;5.27;2.80;;;;;;;13.50;99.67;101204.72;6020806;28;20154;-64
2022/07/16 05:35:07;;;;;;;5.13;2.23;;;;;;;13.57;100.00;101211.94;6025842;28;20390;-64
2022/07/16 05:38:03;;;;;;;7.40;2.33;;;;;;;13.52;100.00;101211.56;6013436;28;20050;-63
2022/07/16 05:40:59;;;;;;;4.33;2.40;;;;;;;13.49;100.00;101203.03;6020448;28;20479;-64
2022/07/16 05:43:55;;;;;;;4.00;2.20;;;;;;;13.52;100.00;101208.91;6025759;28;20498;-64
2022/07/16 05:46:50;;;;;;;4.45;1.80;;;;;;;13.52;100.00;101216.03;6019812;28;20035;-64
2022/07/16 05:49:45;;;;;;;4.27;2.17;;;;;;;13.61;100.00;101223.13;6026709;28;20072;-63
2022/07/16 05:52:41;;;;;;;3.90;1.73;;;;;;;13.66;100.00;101220.84;6021116;28;20890;-63
2022/07/16 05:55:36;;;;;;;5.28;2.38;;;;;;;13.68;100.00;101213.53;6028358;28;20041;-64
2022/07/16 05:58:31;;;;;;;4.17;1.90;;;;;;;13.86;100.00;101216.19;6021228;28;20030;-63
2022/07/16 06:01:27;;;;;;;6.07;2.30;;;;;;;13.95;100.00;101216.06;6026605;28;20273;-63
2022/07/16 06:04:22;;;;;;;3.67;2.10;;;;;;;14.07;100.00;101220.19;6021434;28;20493;-63
2022/07/16 06:07:17;;;;;;;5.30;3.00;;;;;;;14.13;100.00;101230.19;6019458;28;20042;-64
2022/07/16 06:10:13;;;;;;;4.40;2.57;;;;;;;14.34;99.87;101232.56;6019407;28;20097;-63
2022/07/16 06:13:09;;;;;;;3.83;2.70;;;;;;;14.46;99.02;101235.78;6025000;28;20080;-64
2022/07/16 06:16:07;;;;;;;6.07;3.10;;;;;;;14.36;98.00;101233.22;6017540;28;20281;-63
2022/07/16 06:19:02;;;;;;;4.65;3.10;;;;;;;14.42;97.84;101240.59;6024055;28;20038;-64
2022/07/16 06:21:57;;;;;;;4.43;2.90;;;;;;;14.45;97.41;101245.63;6022974;28;20042;-63
2022/07/16 06:24:53;;;;;;;5.00;2.87;;;;;;;14.64;97.11;101244.56;6024459;28;20031;-64
2022/07/16 06:27:48;;;;;;;4.70;3.13;;;;;;;14.87;97.42;101245.66;6019514;28;20038;-65
2022/07/16 06:30:43;;;;;;;6.47;3.20;;;;;;;14.78;96.05;101238.63;6022936;28;20092;-65
2022/07/16 06:33:39;;;;;;;4.35;2.95;;;;;;;14.71;95.78;101245.59;6024111;28;20520;-63
2022/07/16 06:36:34;;;;;;;7.03;3.23;;;;;;;14.99;96.13;101263.06;6026820;28;20038;-63
2022/07/16 06:39:30;;;;;;;5.50;3.20;;;;;;;15.19;94.84;101251.09;6024626;28;20106;-63
2022/07/16 06:42:26;;;;;;;5.15;2.80;;;;;;;15.42;93.88;101260.19;6022255;28;20034;-62
2022/07/16 06:45:21;;;;;;;5.83;2.70;;;;;;;15.41;92.88;101255.84;6024543;28;20031;-65
2022/07/16 06:48:16;;;;;;;4.18;2.28;;;;;;;15.27;91.88;101272.50;6024201;28;20270;-64
2022/07/16 06:51:13;;;;;;;4.25;2.42;;;;;;;15.38;91.83;101261.50;6025113;28;20030;-64
2022/07/16 06:54:08;;;;;;;4.95;2.35;;;;;;;15.92;91.65;101265.47;6026423;28;20030;-64
2022/07/16 06:57:03;;;;;;;3.70;2.10;;;;;;;16.05;87.41;101263.13;6023779;28;20482;-65
2022/07/16 06:59:59;;;;;;;4.00;2.63;;;;;;;16.11;86.34;101253.59;6016411;28;20027;-66
2022/07/16 07:02:54;;;;;;;5.10;1.90;;;;;;;15.95;87.05;101269.66;6017688;28;20030;-65
2022/07/16 07:05:49;;;;;;;4.20;2.20;;;;;;;16.00;86.06;101267.31;6017095;28;20475;-65
2022/07/16 07:08:45;;;;;;;3.20;1.73;;;;;;;16.30;86.17;101280.00;6019694;28;20049;-65
2022/07/16 07:11:42;;;;;;;2.90;1.63;;;;;;;16.66;83.62;101283.97;6018364;28;20333;-64
2022/07/16 07:14:37;;;;;;;3.80;1.70;;;;;;;16.35;82.69;101274.13;6020536;28;20045;-64
2022/07/16 07:17:32;;;;;;;5.23;2.07;;;;;;;16.17;81.64;101274.31;6015877;28;20039;-66
2022/07/16 07:20:28;;;;;;;4.90;1.50;;;;;;;16.13;83.79;101288.22;6023727;28;20069;-63
2022/07/16 07:23:23;;;;;;;5.22;1.85;;;;;;;16.76;82.77;101280.28;6025581;28;20041;-64
2022/07/16 07:26:19;;;;;;;3.00;1.87;;;;;;;16.71;81.23;101277.28;6015854;28;20038;-65
2022/07/16 07:29:14;;;;;;;4.85;2.10;;;;;;;16.87;79.91;101274.53;6019765;28;20030;-65
2022/07/16 07:32:09;;;;;;;3.00;1.60;;;;;;;17.38;77.94;101292.75;6025593;28;20046;-67
2022/07/16 07:35:06;;;;;;;2.90;1.50;;;;;;;17.43;75.27;101279.63;6017281;28;20060;-65
2022/07/16 07:38:01;;;;;;;3.17;1.40;;;;;;;17.28;73.35;101278.72;6025745;28;20113;-65
2022/07/16 07:40:57;;;;;;;2.13;1.40;;;;;;;17.16;76.37;101290.84;6019875;28;20034;-63
2022/07/16 07:43:52;;;;;;;2.72;1.42;;;;;;;17.03;76.84;101293.25;6016155;28;20030;-65
2022/07/16 07:46:47;;;;;;;3.83;1.50;;;;;;;16.63;76.71;101287.00;6015455;28;20047;-64
2022/07/16 07:49:42;;;;;;;3.80;1.60;;;;;;;16.51;77.38;101308.91;6019066;28;20042;-66
2022/07/16 07:52:38;;;;;;;3.17;1.30;;;;;;;16.94;76.78;101294.28;6021944;28;20047;-65
2022/07/16 07:55:33;;;;;;;2.97;1.40;;;;;;;17.30;73.95;101305.34;6021095;28;20510;-65
2022/07/16 07:58:29;;;;;;;5.00;1.48;;;;;;;17.90;73.02;101316.25;6021251;28;20400;-64
2022/07/16 08:01:24;;;;;;;3.43;1.17;;;;;;;18.67;70.12;101290.94;6023728;28;20026;-65
2022/07/16 08:04:19;;;;;;;2.77;1.33;;;;;;;18.67;67.14;101286.38;6014681;28;20744;-65
2022/07/16 08:07:15;;;;;;;3.20;1.50;;;;;;;18.88;66.48;101304.47;6025825;28;20110;-65
2022/07/16 08:10:11;;;;;;;2.58;1.30;;;;;;;19.41;66.42;101290.69;6015197;28;20844;-65
2022/07/16 08:13:06;;;;;;;2.47;1.30;;;;;;;19.56;64.36;101313.03;6014221;28;20030;-64
2022/07/16 08:16:02;;;;;;;4.25;1.38;;;;;;;19.29;65.92;101291.34;6019915;28;20457;-64
2022/07/16 08:18:59;;;;;;;3.03;1.10;;;;;;;19.29;63.80;101299.41;6024224;28;20030;-66
2022/07/16 08:21:54;;;;;;;2.95;1.20;;;;;;;19.21;65.17;101291.47;6013503;28;20061;-65
2022/07/16 08:28:03;;;;;;;4.05;1.50;;;;;;;19.12;64.43;101295.25;6006744;28;20443;-65
2022/07/16 08:30:58;;;;;;;3.42;1.20;;;;;;;18.53;65.21;101299.81;6024800;28;20113;-64
2022/07/16 08:33:54;;;;;;;2.97;1.07;;;;;;;18.42;66.07;101311.81;6014036;28;20049;-65
2022/07/16 08:36:50;;;;;;;2.38;1.00;;;;;;;18.11;66.11;101324.47;6025025;28;20390;-66
2022/07/16 08:39:45;;;;;;;2.53;1.10;;;;;;;17.77;67.63;101314.16;6025325;28;20041;-64
2022/07/16 08:42:41;;;;;;;3.28;1.13;;;;;;;18.15;66.35;101323.94;6015680;28;20410;-65
2022/07/16 08:45:36;;;;;;;2.23;1.10;;;;;;;18.70;63.31;101326.31;6015896;28;20042;-65
2022/07/16 08:48:32;;;;;;;3.20;1.10;;;;;;;18.68;62.53;101325.66;6029845;28;20278;-66
2022/07/16 08:51:35;;;;;;;3.30;0.90;;;;;;;18.68;62.98;101328.34;6009409;28;20118;-64
2022/07/16 08:54:32;;;;;;;4.15;1.23;;;;;;;19.31;60.15;101322.41;6010797;28;20070;-65
2022/07/16 08:57:28;;;;;;;1.45;0.80;;;;;;;19.69;60.23;101331.19;6021141;28;20066;-64
2022/07/16 09:00:24;;;;;;;2.65;1.20;;;;;;;20.01;59.05;101336.06;6027571;28;20604;-64
2022/07/16 09:03:19;;;;;;;4.43;1.00;;;;;;;19.23;56.00;101352.09;6029657;28;20038;-63
2022/07/16 09:06:17;;;;;;;2.63;0.97;;;;;;;18.63;58.52;101364.84;6029357;28;20065;-64
2022/07/16 09:09:13;;;;;;;3.83;0.90;;;;;;;18.11;59.76;101373.63;6044614;28;20269;-65
2022/07/16 09:12:08;;;;;;;7.20;1.20;;;;;;;17.68;59.04;101377.78;6028262;28;20502;-65
2022/07/16 09:15:25;;;;;;;6.83;1.10;;;;;;;17.88;58.40;101378.16;6028736;28;20080;-65
2022/07/16 09:18:25;;;;;;;3.55;0.85;;;;;;;18.44;55.87;101377.75;6027783;28;20046;-64
2022/07/16 09:21:21;;;;;;;4.65;1.05;;;;;;;18.45;56.55;101370.53;6028039;28;20030;-64
2022/07/16 09:24:30;;;;;;;2.90;1.00;;;;;;;19.00;56.48;101378.22;6029101;28;20031;-66
2022/07/16 09:27:26;;;;;;;3.65;0.90;;;;;;;18.93;55.53;101388.06;6028988;28;20033;-64
2022/07/16 09:30:23;;;;;;;2.65;1.10;;;;;;;18.71;55.60;101383.56;6028227;28;20038;-65
2022/07/16 09:33:21;;;;;;;3.33;1.10;;;;;;;19.21;55.52;101372.13;6022885;28;20032;-65
2022/07/16 09:36:16;;;;;;;2.63;1.38;;;;;;;19.55;55.81;101377.78;6017847;28;20039;-66
2022/07/16 09:39:11;;;;;;;2.27;1.07;;;;;;;19.95;52.41;101374.53;6026623;28;20034;-63
2022/07/16 09:42:07;;;;;;;3.00;1.10;;;;;;;20.10;53.78;101367.25;6041628;28;20490;-64
2022/07/16 09:45:02;;;;;;;3.47;1.00;;;;;;;20.18;49.74;101385.13;6016915;28;20034;-64
2022/07/16 09:47:58;;;;;;;3.72;0.90;;;;;;;20.57;51.19;101377.44;6018361;28;20037;-64
2022/07/16 09:50:55;;;;;;;3.33;1.00;;;;;;;20.59;48.60;101379.94;6019868;28;20037;-64
2022/07/16 09:53:52;;;;;;;4.60;1.05;;;;;;;20.63;48.85;101384.75;6017604;28;20061;-65
2022/07/16 09:57:03;;;;;;;3.42;1.02;;;;;;;20.75;47.73;101387.75;6022115;28;20615;-65
2022/07/16 09:59:59;;;;;;;5.72;1.17;;;;;;;20.53;47.29;101384.25;6027323;28;20038;-65
2022/07/16 10:02:55;;;;;;;5.43;1.13;;;;;;;20.22;49.70;101382.91;6025451;28;20030;-64
2022/07/16 10:05:50;;;;;;;2.17;1.15;;;;;;;19.75;52.64;101397.72;6025305;28;20034;-63
2022/07/16 10:08:46;;;;;;;2.72;1.05;;;;;;;19.56;53.19;101411.75;6024903;28;20038;-63
2022/07/16 10:11:42;;;;;;;7.87;1.20;;;;;;;19.26;53.01;101431.56;6018014;28;20335;-65
2022/07/16 10:14:56;;;;;;;1.80;0.90;;;;;;;18.63;54.56;101430.16;6037642;28;20117;-64
2022/07/16 10:17:52;;;;;;;3.38;0.95;;;;;;;18.90;52.78;101401.88;6017658;28;20414;-64
2022/07/16 10:21:02;;;;;;;3.60;1.00;;;;;;;19.64;50.34;101418.88;6007788;28;20476;-64
2022/07/16 10:24:04;;;;;;;4.70;1.00;;;;;;;20.02;49.56;101421.22;6022149;28;20085;-63
2022/07/16 10:27:27;;;;;;;2.40;0.80;;;;;;;20.72;49.08;101431.25;6025144;28;20034;-64
2022/07/16 10:30:22;;;;;;;2.03;0.73;;;;;;;21.45;46.92;101427.22;6024957;28;20031;-64
2022/07/16 10:33:17;;;;;;;4.47;1.00;;;;;;;21.81;45.13;101422.44;6026254;28;20614;-66
2022/07/16 10:36:13;;;;;;;3.58;1.00;;;;;;;22.45;44.03;101420.09;6026747;28;20042;-65
2022/07/16 10:39:12;;;;;;;6.27;1.10;;;;;;;21.52;45.28;101438.91;6026499;28;20035;-64
2022/07/16 10:42:16;;;;;;;3.30;0.90;;;;;;;20.20;46.91;101443.16;6025908;28;20027;-64
2022/07/16 10:45:11;;;;;;;5.53;1.00;;;;;;;19.93;48.27;101435.81;6025605;28;20380;-65
2022/07/16 10:48:06;;;;;;;4.00;1.00;;;;;;;20.56;45.44;101437.78;6019333;28;20042;-65
2022/07/16 10:51:39;;;;;;;3.17;1.17;;;;;;;21.02;44.28;101456.19;6022620;28;20033;-64
2022/07/16 10:54:39;;;;;;;5.35;0.95;;;;;;;20.91;43.36;101438.69;6024376;28;20045;-64
2022/07/16 10:57:36;;;;;;;2.78;0.90;;;;;;;21.32;43.92;101458.53;6026413;28;20034;-66
2022/07/16 11:00:31;;;;;;;4.45;1.05;;;;;;;21.00;42.13;101472.59;6024571;28;20053;-63
2022/07/16 11:03:27;;;;;;;3.45;1.00;;;;;;;19.92;43.97;101469.13;6016046;28;20483;-65
2022/07/16 11:06:23;;;;;;;3.33;0.90;;;;;;;20.36;44.59;101476.31;6026525;28;20038;-65
2022/07/16 11:09:29;;;;;;;6.57;1.35;;;;;;;20.89;42.49;101478.50;6025301;28;20081;-65
2022/07/16 11:12:27;;;;;;;3.17;0.90;;;;;;;21.05;42.43;101477.38;6025136;28;20037;-64
2022/07/16 11:15:23;;;;;;;3.75;1.15;;;;;;;21.04;41.44;101478.41;6024383;28;20030;-66
2022/07/16 11:18:18;;;;;;;4.23;0.97;;;;;;;21.15;39.94;101488.69;6022002;28;20065;-65
2022/07/16 11:21:13;;;;;;;5.03;1.03;;;;;;;21.25;38.89;101479.22;6034864;28;20270;-64
2022/07/16 11:24:09;;;;;;;1.87;0.70;;;;;;;21.26;37.60;101486.28;6024557;28;20085;-64
2022/07/16 11:27:05;;;;;;;4.53;1.13;;;;;;;21.87;36.08;101481.91;6026226;28;20113;-65
2022/07/16 11:30:10;;;;;;;2.90;0.93;;;;;;;22.10;36.64;101480.72;6022520;28;20069;-64
2022/07/16 11:33:05;;;;;;;5.50;0.93;;;;;;;22.18;35.58;101461.63;6022783;28;20113;-65
2022/07/16 11:36:05;;;;;;;7.00;1.20;;;;;;;21.22;39.00;101500.38;6024890;28;20038;-63
2022/07/16 11:39:03;;;;;;;2.30;0.80;;;;;;;20.69;39.95;101494.50;6024285;28;20034;-66
2022/07/16 11:41:59;;;;;;;5.38;0.80;;;;;;;20.78;38.59;101505.97;6024733;28;20034;-66
2022/07/16 11:44:54;;;;;;;7.43;0.90;;;;;;;21.03;39.72;101501.88;6024592;28;20035;-65
2022/07/16 11:48:16;;;;;;;2.73;0.90;;;;;;;21.75;37.03;101499.69;6024659;28;20042;-65
2022/07/16 11:51:11;;;;;;;1.65;0.80;;;;;;;21.43;37.58;101494.91;6024164;28;20377;-66
2022/07/16 11:54:07;;;;;;;3.97;0.80;;;;;;;21.51;37.06;101505.56;6018587;28;20675;-64
2022/07/16 11:57:03;;;;;;;3.25;0.80;;;;;;;21.26;38.97;101507.88;6022279;28;20053;-64
2022/07/16 11:59:58;;;;;;;5.32;1.10;;;;;;;21.75;39.29;101515.88;6025072;28;20129;-64
2022/07/16 12:02:57;;;;;;;3.63;0.67;;;;;;;22.04;36.67;101501.28;6019811;28;20031;-64
2022/07/16 12:06:03;;;;;;;2.40;0.90;;;;;;;22.09;36.36;101508.81;6021577;28;20033;-64
2022/07/16 12:08:58;;;;;;;;;;;;;;;21.54;37.21;101525.94;6018650;28;20049;-65
2022/07/16 12:11:59;;;;;;;4.07;1.03;;;;;;;22.08;36.52;101516.06;6024683;28;19914;-65
2022/07/16 12:15:12;;;;;;;2.28;0.82;;;;;;;21.56;38.93;101526.56;6016893;28;20041;-66
2022/07/16 12:18:13;;;;;;;3.03;0.70;;;;;;;20.92;41.11;101544.69;6023673;28;20038;-66
2022/07/16 12:21:29;;;;;;;3.72;1.23;;;;;;;20.57;41.37;101535.63;6023928;28;20069;-65
2022/07/16 12:24:28;;;;;;;3.58;0.80;;;;;;;21.48;41.15;101532.09;6023443;28;20038;-65
2022/07/16 12:27:23;;;;;;;6.05;1.00;;;;;;;21.92;37.86;101522.66;6025189;28;20030;-66
2022/07/16 12:30:29;;;;;;;2.33;0.70;;;;;;;21.74;39.65;101546.59;6044196;28;20552;-66
2022/07/16 12:33:27;;;;;;;2.65;0.90;;;;;;;21.85;39.62;101537.94;6024025;28;20032;-66
2022/07/16 12:36:32;;;;;;;3.83;0.90;;;;;;;21.87;38.37;101540.50;6028966;28;20038;-66
2022/07/16 12:39:27;;;;;;;5.68;1.15;;;;;;;21.83;37.01;101541.88;6027201;28;20474;-67
2022/07/16 12:42:23;;;;;;;4.10;0.67;;;;;;;22.52;37.37;101535.38;6028283;28;20031;-66
2022/07/16 12:45:18;;;;;;;2.27;1.07;;;;;;;22.28;36.13;101549.44;6029406;28;20037;-64
2022/07/16 12:48:13;;;;;;;5.57;1.00;;;;;;;22.23;36.75;101564.59;6023649;28;20491;-65
2022/07/16 12:51:10;;;;;;;3.10;1.30;;;;;;;22.43;35.81;101557.38;6028682;28;20035;-64
2022/07/16 12:54:07;;;;;;;4.82;1.35;;;;;;;22.11;36.56;101564.31;6026526;28;20048;-66
2022/07/16 13:00:16;;;;;;;2.80;0.80;;;;;;;22.01;36.34;101560.31;6019429;28;20034;-66
2022/07/16 13:03:11;;;;;;;4.97;1.30;;;;;;;21.18;39.03;101578.16;6017574;28;20051;-65
2022/07/16 13:06:07;;;;;;;4.10;0.90;;;;;;;21.16;40.10;101574.00;6027913;28;20022;-64
2022/07/16 13:09:04;;;;;;;4.57;0.80;;;;;;;21.49;39.40;101567.03;6020899;28;20041;-64
2022/07/16 13:11:59;;;;;;;4.18;1.00;;;;;;;22.13;37.95;101578.44;6028329;28;20337;-65
2022/07/16 13:14:54;;;;;;;2.87;0.90;;;;;;;22.46;36.40;101576.72;6028222;28;20035;-65
2022/07/16 13:17:50;;;;;;;5.67;0.80;;;;;;;22.80;34.09;101569.59;6027491;28;20349;-65
2022/07/16 13:20:45;;;;;;;4.67;1.03;;;;;;;22.15;35.98;101586.38;6026610;28;20042;-67
2022/07/16 13:23:41;;;;;;;4.80;1.17;;;;;;;21.44;37.04;101588.38;6025127;28;20168;-66
2022/07/16 13:26:36;;;;;;;4.60;0.80;;;;;;;20.61;39.61;101572.78;6028277;28;20069;-64
2022/07/16 13:29:32;;;;;;;5.18;1.00;;;;;;;21.27;39.90;101593.22;6027386;28;20065;-66
2022/07/16 13:32:27;;;;;;;3.80;0.82;;;;;;;22.13;38.71;101600.06;6027327;28;20700;-65
2022/07/16 13:35:22;;;;;;;5.70;1.10;;;;;;;22.16;37.42;101598.84;6028229;28;20038;-65
2022/07/16 13:38:18;;;;;;;5.25;0.98;;;;;;;22.59;36.87;101596.72;6026776;28;20045;-64
2022/07/16 13:41:14;;;;;;;4.22;0.70;;;;;;;22.67;37.14;101580.34;6027549;28;20038;-66
2022/07/16 13:44:10;;;;;;;4.88;0.80;;;;;;;21.93;35.52;101586.44;6016831;28;20030;-66
2022/07/16 13:47:05;;;;;;;5.07;0.90;;;;;;;21.33;37.62;101587.00;6028207;28;20030;-65
2022/07/16 13:50:00;;;;;;;5.23;0.80;;;;;;;21.62;37.91;101604.91;6019309;28;20036;-66
2022/07/16 13:52:56;;;;;;;4.85;0.90;;;;;;;22.32;36.49;101606.59;6021085;28;20027;-65